首页
METAR-TAF:

METAR-TAF

机场 :

Dansville Municipal Airport

Dansville, 紐約州, 美国

纬度: 42-34-10N, 经度: 077-42-52W, 海拔: 201米

当前天气观测

该预报发布于20分钟前的08:54 UTC
静风
温度 -12°C
湿度 85%
气压 1025 hPa
能見度: 16.1公里
多云层高于4200英尺
阴天层高于6500英尺

METAR: KDSV 130854Z AUTO 00000KT 10SM BKN042 OVC065 M12/M14 A3026 RMK AO2 SLP266 I1001 I3001 T11171139 53007

时间: 04:14 (09:14 UTC)


TAF: 丢失

超过4000个机场的气象观测和天气预报(METAR&TAF报告)。

可查询的气象台以黄色和红色小点在地图上表示。

将鼠标移到小点上方,可查看气象台名称。

然后点击查看天气观测和预报。

如需切换地图:点击带黑十字的绿色按钮放大地图;点击带横线的绿色按钮缩小地图;或者点击绿色箭头查看邻近地区的地图。


METAR-TAF: